sensor_id;sensor_type;location;lat;lon;timestamp;temperature;humidity
70986;DHT22;58645;43.068;25.610;2023-11-18T00:01:09;8.60;99.90
70986;DHT22;58645;43.068;25.610;2023-11-18T00:03:35;8.70;99.90
70986;DHT22;58645;43.068;25.610;2023-11-18T00:06:00;8.70;99.90
70986;DHT22;58645;43.068;25.610;2023-11-18T00:08:26;8.70;99.90
70986;DHT22;58645;43.068;25.610;2023-11-18T00:10:52;8.70;99.90
70986;DHT22;58645;43.068;25.610;2023-11-18T00:13:17;8.70;99.90
70986;DHT22;58645;43.068;25.610;2023-11-18T00:15:43;8.70;99.90
70986;DHT22;58645;43.068;25.610;2023-11-18T00:18:11;8.70;99.90
70986;DHT22;58645;43.068;25.610;2023-11-18T00:20:37;8.60;99.90
70986;DHT22;58645;43.068;25.610;2023-11-18T00:23:03;8.60;99.90
70986;DHT22;58645;43.068;25.610;2023-11-18T00:25:30;8.60;99.90
70986;DHT22;58645;43.068;25.610;2023-11-18T00:27:55;8.60;99.90
70986;DHT22;58645;43.068;25.610;2023-11-18T00:30:21;8.60;99.90
70986;DHT22;58645;43.068;25.610;2023-11-18T00:32:47;8.60;99.90
70986;DHT22;58645;43.068;25.610;2023-11-18T00:35:13;8.60;99.90
70986;DHT22;58645;43.068;25.610;2023-11-18T00:37:40;8.60;99.90
70986;DHT22;58645;43.068;25.610;2023-11-18T00:40:07;8.60;99.90
70986;DHT22;58645;43.068;25.610;2023-11-18T00:42:34;8.50;99.90
70986;DHT22;58645;43.068;25.610;2023-11-18T00:44:59;8.40;99.90
70986;DHT22;58645;43.068;25.610;2023-11-18T00:47:25;8.40;99.90
70986;DHT22;58645;43.068;25.610;2023-11-18T00:49:51;8.40;99.90
70986;DHT22;58645;43.068;25.610;2023-11-18T00:52:18;8.40;99.90
70986;DHT22;58645;43.068;25.610;2023-11-18T00:54:44;8.40;99.90
70986;DHT22;58645;43.068;25.610;2023-11-18T00:57:10;8.40;99.90
70986;DHT22;58645;43.068;25.610;2023-11-18T00:59:36;8.30;99.90
70986;DHT22;58645;43.068;25.610;2023-11-18T01:02:03;8.30;99.90
70986;DHT22;58645;43.068;25.610;2023-11-18T01:04:29;8.20;99.90
70986;DHT22;58645;43.068;25.610;2023-11-18T01:06:55;8.30;99.90
70986;DHT22;58645;43.068;25.610;2023-11-18T01:09:23;8.20;99.90
70986;DHT22;58645;43.068;25.610;2023-11-18T01:11:49;8.20;99.90
70986;DHT22;58645;43.068;25.610;2023-11-18T01:14:15;8.20;99.90
70986;DHT22;58645;43.068;25.610;2023-11-18T01:16:42;8.20;99.90
70986;DHT22;58645;43.068;25.610;2023-11-18T01:19:09;8.20;99.90
70986;DHT22;58645;43.068;25.610;2023-11-18T01:21:35;8.20;99.90
70986;DHT22;58645;43.068;25.610;2023-11-18T01:24:02;8.20;99.90
70986;DHT22;58645;43.068;25.610;2023-11-18T01:26:28;8.20;99.90
70986;DHT22;58645;43.068;25.610;2023-11-18T01:28:53;8.10;99.90
70986;DHT22;58645;43.068;25.610;2023-11-18T01:31:21;8.10;99.90
70986;DHT22;58645;43.068;25.610;2023-11-18T01:33:47;8.10;99.90
70986;DHT22;58645;43.068;25.610;2023-11-18T01:36:15;8.10;99.90
70986;DHT22;58645;43.068;25.610;2023-11-18T01:38:43;8.10;99.90
70986;DHT22;58645;43.068;25.610;2023-11-18T01:41:09;8.10;99.90
70986;DHT22;58645;43.068;25.610;2023-11-18T01:43:34;8.00;99.90
70986;DHT22;58645;43.068;25.610;2023-11-18T01:46:03;8.00;99.90
70986;DHT22;58645;43.068;25.610;2023-11-18T01:48:29;8.00;99.90
70986;DHT22;58645;43.068;25.610;2023-11-18T01:50:57;8.00;99.90
70986;DHT22;58645;43.068;25.610;2023-11-18T01:53:24;8.00;99.90
70986;DHT22;58645;43.068;25.610;2023-11-18T01:55:50;8.00;99.90
70986;DHT22;58645;43.068;25.610;2023-11-18T01:58:16;8.00;99.90
70986;DHT22;58645;43.068;25.610;2023-11-18T02:00:45;8.00;99.90
70986;DHT22;58645;43.068;25.610;2023-11-18T02:03:12;7.90;99.90
70986;DHT22;58645;43.068;25.610;2023-11-18T02:05:38;7.90;99.90
70986;DHT22;58645;43.068;25.610;2023-11-18T02:08:05;7.90;99.90
70986;DHT22;58645;43.068;25.610;2023-11-18T02:10:35;7.80;99.90
70986;DHT22;58645;43.068;25.610;2023-11-18T02:13:15;7.90;99.90
70986;DHT22;58645;43.068;25.610;2023-11-18T02:15:41;7.90;99.90
70986;DHT22;58645;43.068;25.610;2023-11-18T02:18:08;7.90;99.90
70986;DHT22;58645;43.068;25.610;2023-11-18T02:20:36;7.90;99.90
70986;DHT22;58645;43.068;25.610;2023-11-18T02:23:02;7.80;99.90
70986;DHT22;58645;43.068;25.610;2023-11-18T02:25:29;7.80;99.90
70986;DHT22;58645;43.068;25.610;2023-11-18T02:27:58;7.80;99.90
70986;DHT22;58645;43.068;25.610;2023-11-18T02:30:24;7.80;99.90
70986;DHT22;58645;43.068;25.610;2023-11-18T02:33:08;7.80;99.90
70986;DHT22;58645;43.068;25.610;2023-11-18T02:35:49;7.80;99.90
70986;DHT22;58645;43.068;25.610;2023-11-18T02:38:19;7.80;99.90
70986;DHT22;58645;43.068;25.610;2023-11-18T02:40:49;7.80;99.90
70986;DHT22;58645;43.068;25.610;2023-11-18T02:43:19;7.80;99.90
70986;DHT22;58645;43.068;25.610;2023-11-18T02:45:45;7.80;99.90
70986;DHT22;58645;43.068;25.610;2023-11-18T02:48:12;7.80;99.90
70986;DHT22;58645;43.068;25.610;2023-11-18T02:50:40;7.80;99.90
70986;DHT22;58645;43.068;25.610;2023-11-18T02:53:08;7.70;99.90
70986;DHT22;58645;43.068;25.610;2023-11-18T02:55:35;7.70;99.90
70986;DHT22;58645;43.068;25.610;2023-11-18T02:58:01;7.70;99.90
70986;DHT22;58645;43.068;25.610;2023-11-18T03:00:28;7.70;99.90
70986;DHT22;58645;43.068;25.610;2023-11-18T03:02:54;7.80;99.90
70986;DHT22;58645;43.068;25.610;2023-11-18T03:05:20;7.80;99.90
70986;DHT22;58645;43.068;25.610;2023-11-18T03:07:49;7.70;99.90
70986;DHT22;58645;43.068;25.610;2023-11-18T03:10:19;7.70;99.90
70986;DHT22;58645;43.068;25.610;2023-11-18T03:12:52;7.70;99.90
70986;DHT22;58645;43.068;25.610;2023-11-18T03:15:19;7.70;99.90
70986;DHT22;58645;43.068;25.610;2023-11-18T03:17:45;7.70;99.90
70986;DHT22;58645;43.068;25.610;2023-11-18T03:20:16;7.70;99.90
70986;DHT22;58645;43.068;25.610;2023-11-18T03:22:52;7.60;99.90
70986;DHT22;58645;43.068;25.610;2023-11-18T03:25:18;7.70;99.90
70986;DHT22;58645;43.068;25.610;2023-11-18T03:27:47;7.60;99.90
70986;DHT22;58645;43.068;25.610;2023-11-18T03:30:13;7.60;99.90
70986;DHT22;58645;43.068;25.610;2023-11-18T03:32:40;7.60;99.90
70986;DHT22;58645;43.068;25.610;2023-11-18T03:35:07;7.50;99.90
70986;DHT22;58645;43.068;25.610;2023-11-18T03:37:37;7.50;99.90
70986;DHT22;58645;43.068;25.610;2023-11-18T03:40:13;7.50;99.90
70986;DHT22;58645;43.068;25.610;2023-11-18T03:42:43;7.50;99.90
70986;DHT22;58645;43.068;25.610;2023-11-18T03:45:12;7.50;99.90
70986;DHT22;58645;43.068;25.610;2023-11-18T03:47:40;7.40;99.90
70986;DHT22;58645;43.068;25.610;2023-11-18T03:50:06;7.40;99.90
70986;DHT22;58645;43.068;25.610;2023-11-18T03:52:38;7.40;99.90
70986;DHT22;58645;43.068;25.610;2023-11-18T03:55:04;7.40;99.90
70986;DHT22;58645;43.068;25.610;2023-11-18T03:57:30;7.40;99.90
70986;DHT22;58645;43.068;25.610;2023-11-18T03:59:56;7.40;99.90
70986;DHT22;58645;43.068;25.610;2023-11-18T04:02:21;7.30;99.90
70986;DHT22;58645;43.068;25.610;2023-11-18T04:04:47;7.30;99.90
70986;DHT22;58645;43.068;25.610;2023-11-18T04:07:14;7.30;99.90
70986;DHT22;58645;43.068;25.610;2023-11-18T04:09:39;7.30;99.90
70986;DHT22;58645;43.068;25.610;2023-11-18T04:12:09;7.20;99.90
70986;DHT22;58645;43.068;25.610;2023-11-18T04:14:36;7.20;99.90
70986;DHT22;58645;43.068;25.610;2023-11-18T04:17:03;7.20;99.90
70986;DHT22;58645;43.068;25.610;2023-11-18T04:19:28;7.20;99.90
70986;DHT22;58645;43.068;25.610;2023-11-18T04:21:54;7.10;99.90
70986;DHT22;58645;43.068;25.610;2023-11-18T04:24:20;7.10;99.90
70986;DHT22;58645;43.068;25.610;2023-11-18T04:26:45;7.10;99.90
70986;DHT22;58645;43.068;25.610;2023-11-18T04:29:13;7.10;99.90
70986;DHT22;58645;43.068;25.610;2023-11-18T04:31:39;7.10;99.90
70986;DHT22;58645;43.068;25.610;2023-11-18T04:34:05;7.00;99.90
70986;DHT22;58645;43.068;25.610;2023-11-18T04:36:31;7.00;99.90
70986;DHT22;58645;43.068;25.610;2023-11-18T04:38:57;6.90;99.90
70986;DHT22;58645;43.068;25.610;2023-11-18T04:41:23;6.90;99.90
70986;DHT22;58645;43.068;25.610;2023-11-18T04:43:49;6.90;99.90
70986;DHT22;58645;43.068;25.610;2023-11-18T04:46:15;6.80;99.90
70986;DHT22;58645;43.068;25.610;2023-11-18T04:48:42;6.80;99.90
70986;DHT22;58645;43.068;25.610;2023-11-18T04:51:08;6.80;99.90
70986;DHT22;58645;43.068;25.610;2023-11-18T04:53:34;6.80;99.90
70986;DHT22;58645;43.068;25.610;2023-11-18T04:55:59;6.70;99.90
70986;DHT22;58645;43.068;25.610;2023-11-18T04:58:25;6.70;99.90
70986;DHT22;58645;43.068;25.610;2023-11-18T05:00:51;6.60;99.90
70986;DHT22;58645;43.068;25.610;2023-11-18T05:03:17;6.60;99.90
70986;DHT22;58645;43.068;25.610;2023-11-18T05:05:42;6.60;99.90
70986;DHT22;58645;43.068;25.610;2023-11-18T05:08:20;6.60;99.90
70986;DHT22;58645;43.068;25.610;2023-11-18T05:10:50;6.60;99.90
70986;DHT22;58645;43.068;25.610;2023-11-18T05:13:18;6.60;99.90
70986;DHT22;58645;43.068;25.610;2023-11-18T05:15:45;6.60;99.90
70986;DHT22;58645;43.068;25.610;2023-11-18T05:18:14;6.60;99.90
70986;DHT22;58645;43.068;25.610;2023-11-18T05:20:46;6.60;99.90
70986;DHT22;58645;43.068;25.610;2023-11-18T05:23:12;6.60;99.90
70986;DHT22;58645;43.068;25.610;2023-11-18T05:25:42;6.60;99.90
70986;DHT22;58645;43.068;25.610;2023-11-18T05:28:11;6.60;99.90
70986;DHT22;58645;43.068;25.610;2023-11-18T05:30:38;6.60;99.90
70986;DHT22;58645;43.068;25.610;2023-11-18T05:33:05;6.60;99.90
70986;DHT22;58645;43.068;25.610;2023-11-18T05:35:34;6.60;99.90
70986;DHT22;58645;43.068;25.610;2023-11-18T05:38:00;6.50;99.90
70986;DHT22;58645;43.068;25.610;2023-11-18T05:40:28;6.50;99.90
70986;DHT22;58645;43.068;25.610;2023-11-18T05:42:55;6.50;99.90
70986;DHT22;58645;43.068;25.610;2023-11-18T05:45:22;6.40;99.90
70986;DHT22;58645;43.068;25.610;2023-11-18T05:47:57;6.40;99.90
70986;DHT22;58645;43.068;25.610;2023-11-18T05:50:23;6.40;99.90
70986;DHT22;58645;43.068;25.610;2023-11-18T05:52:53;6.40;99.90
70986;DHT22;58645;43.068;25.610;2023-11-18T05:55:19;6.40;99.90
70986;DHT22;58645;43.068;25.610;2023-11-18T05:57:45;6.40;99.90
70986;DHT22;58645;43.068;25.610;2023-11-18T06:00:15;6.40;99.90
70986;DHT22;58645;43.068;25.610;2023-11-18T06:02:42;6.40;99.90
70986;DHT22;58645;43.068;25.610;2023-11-18T06:05:08;6.40;99.90
70986;DHT22;58645;43.068;25.610;2023-11-18T06:07:35;6.40;99.90
70986;DHT22;58645;43.068;25.610;2023-11-18T06:10:01;6.40;99.90
70986;DHT22;58645;43.068;25.610;2023-11-18T06:12:31;6.40;99.90
70986;DHT22;58645;43.068;25.610;2023-11-18T06:14:57;6.30;99.90
70986;DHT22;58645;43.068;25.610;2023-11-18T06:17:23;6.40;99.90
70986;DHT22;58645;43.068;25.610;2023-11-18T06:19:49;6.40;99.90
70986;DHT22;58645;43.068;25.610;2023-11-18T06:22:15;6.40;99.90
70986;DHT22;58645;43.068;25.610;2023-11-18T06:24:41;6.40;99.90
70986;DHT22;58645;43.068;25.610;2023-11-18T06:27:06;6.30;99.90
70986;DHT22;58645;43.068;25.610;2023-11-18T06:29:34;6.40;99.90
70986;DHT22;58645;43.068;25.610;2023-11-18T06:32:00;6.40;99.90
70986;DHT22;58645;43.068;25.610;2023-11-18T06:34:26;6.40;99.90
70986;DHT22;58645;43.068;25.610;2023-11-18T06:36:53;6.50;99.90
70986;DHT22;58645;43.068;25.610;2023-11-18T06:39:18;6.50;99.90
70986;DHT22;58645;43.068;25.610;2023-11-18T06:41:47;6.50;99.90
70986;DHT22;58645;43.068;25.610;2023-11-18T06:44:16;6.50;99.90
70986;DHT22;58645;43.068;25.610;2023-11-18T06:46:49;6.50;99.90
70986;DHT22;58645;43.068;25.610;2023-11-18T06:49:16;6.40;99.90
70986;DHT22;58645;43.068;25.610;2023-11-18T06:51:43;6.40;99.90
70986;DHT22;58645;43.068;25.610;2023-11-18T06:54:09;6.40;99.90
70986;DHT22;58645;43.068;25.610;2023-11-18T06:56:40;6.40;99.90
70986;DHT22;58645;43.068;25.610;2023-11-18T06:59:09;6.40;99.90
70986;DHT22;58645;43.068;25.610;2023-11-18T07:01:38;6.50;99.90
70986;DHT22;58645;43.068;25.610;2023-11-18T07:04:06;6.50;99.90
70986;DHT22;58645;43.068;25.610;2023-11-18T07:06:36;6.50;99.90
70986;DHT22;58645;43.068;25.610;2023-11-18T07:09:08;6.50;99.90
70986;DHT22;58645;43.068;25.610;2023-11-18T07:11:39;6.50;99.90
70986;DHT22;58645;43.068;25.610;2023-11-18T07:14:07;6.50;99.90
70986;DHT22;58645;43.068;25.610;2023-11-18T07:16:34;6.40;99.90
70986;DHT22;58645;43.068;25.610;2023-11-18T07:19:00;6.50;99.90
70986;DHT22;58645;43.068;25.610;2023-11-18T07:21:26;6.50;99.90
70986;DHT22;58645;43.068;25.610;2023-11-18T07:23:52;6.50;99.90
70986;DHT22;58645;43.068;25.610;2023-11-18T07:26:17;6.60;99.90
70986;DHT22;58645;43.068;25.610;2023-11-18T07:28:43;6.70;99.90
70986;DHT22;58645;43.068;25.610;2023-11-18T07:31:10;6.70;99.90
70986;DHT22;58645;43.068;25.610;2023-11-18T07:33:35;6.80;99.90
70986;DHT22;58645;43.068;25.610;2023-11-18T07:36:01;6.80;99.90
70986;DHT22;58645;43.068;25.610;2023-11-18T07:38:31;6.80;99.90
70986;DHT22;58645;43.068;25.610;2023-11-18T07:40:57;6.80;99.90
70986;DHT22;58645;43.068;25.610;2023-11-18T07:43:23;6.90;99.90
70986;DHT22;58645;43.068;25.610;2023-11-18T07:45:49;7.10;99.90
70986;DHT22;58645;43.068;25.610;2023-11-18T07:48:17;7.20;99.90
70986;DHT22;58645;43.068;25.610;2023-11-18T07:50:44;7.30;99.90
70986;DHT22;58645;43.068;25.610;2023-11-18T07:53:10;7.30;99.90
70986;DHT22;58645;43.068;25.610;2023-11-18T07:55:36;7.40;99.90
70986;DHT22;58645;43.068;25.610;2023-11-18T07:58:09;7.30;99.90
70986;DHT22;58645;43.068;25.610;2023-11-18T08:00:42;7.20;99.90
70986;DHT22;58645;43.068;25.610;2023-11-18T08:03:14;7.10;99.90
70986;DHT22;58645;43.068;25.610;2023-11-18T08:05:41;7.00;99.90
70986;DHT22;58645;43.068;25.610;2023-11-18T08:08:12;6.90;99.90
70986;DHT22;58645;43.068;25.610;2023-11-18T08:10:40;7.00;99.90
70986;DHT22;58645;43.068;25.610;2023-11-18T08:13:07;7.00;99.90
70986;DHT22;58645;43.068;25.610;2023-11-18T08:15:38;7.10;99.90
70986;DHT22;58645;43.068;25.610;2023-11-18T08:18:05;7.00;99.90
70986;DHT22;58645;43.068;25.610;2023-11-18T08:20:32;6.90;99.90
70986;DHT22;58645;43.068;25.610;2023-11-18T08:22:58;6.90;99.90
70986;DHT22;58645;43.068;25.610;2023-11-18T08:25:23;6.90;99.90
70986;DHT22;58645;43.068;25.610;2023-11-18T08:27:49;6.90;99.90
70986;DHT22;58645;43.068;25.610;2023-11-18T08:30:15;6.90;99.90
70986;DHT22;58645;43.068;25.610;2023-11-18T08:32:44;6.90;99.90
70986;DHT22;58645;43.068;25.610;2023-11-18T08:35:11;6.90;99.90
70986;DHT22;58645;43.068;25.610;2023-11-18T08:37:40;6.90;99.90
70986;DHT22;58645;43.068;25.610;2023-11-18T08:40:07;6.80;99.90
70986;DHT22;58645;43.068;25.610;2023-11-18T08:42:50;6.70;99.90
70986;DHT22;58645;43.068;25.610;2023-11-18T08:45:16;6.80;99.90
70986;DHT22;58645;43.068;25.610;2023-11-18T08:47:47;6.80;99.90
70986;DHT22;58645;43.068;25.610;2023-11-18T08:50:17;6.80;99.90
70986;DHT22;58645;43.068;25.610;2023-11-18T08:52:46;6.70;99.90
70986;DHT22;58645;43.068;25.610;2023-11-18T08:55:18;6.80;99.90
70986;DHT22;58645;43.068;25.610;2023-11-18T08:57:51;6.70;99.90
70986;DHT22;58645;43.068;25.610;2023-11-18T09:00:30;6.70;99.90
70986;DHT22;58645;43.068;25.610;2023-11-18T09:03:26;6.70;99.90
70986;DHT22;58645;43.068;25.610;2023-11-18T09:06:01;6.70;99.90
70986;DHT22;58645;43.068;25.610;2023-11-18T09:08:31;6.80;99.90
70986;DHT22;58645;43.068;25.610;2023-11-18T09:11:14;6.70;99.90
70986;DHT22;58645;43.068;25.610;2023-11-18T09:13:45;6.70;99.90
70986;DHT22;58645;43.068;25.610;2023-11-18T09:16:15;6.80;99.90
70986;DHT22;58645;43.068;25.610;2023-11-18T09:18:43;6.70;99.90
70986;DHT22;58645;43.068;25.610;2023-11-18T09:21:13;6.70;99.90
70986;DHT22;58645;43.068;25.610;2023-11-18T09:23:45;6.60;99.90
70986;DHT22;58645;43.068;25.610;2023-11-18T09:26:13;6.70;99.90
70986;DHT22;58645;43.068;25.610;2023-11-18T09:28:40;6.60;99.90
70986;DHT22;58645;43.068;25.610;2023-11-18T09:31:06;6.60;99.90
70986;DHT22;58645;43.068;25.610;2023-11-18T09:33:37;6.60;99.90
70986;DHT22;58645;43.068;25.610;2023-11-18T09:36:06;6.60;99.90
70986;DHT22;58645;43.068;25.610;2023-11-18T09:38:37;6.60;99.90
70986;DHT22;58645;43.068;25.610;2023-11-18T09:41:06;6.60;99.90
70986;DHT22;58645;43.068;25.610;2023-11-18T09:43:33;6.60;99.90
70986;DHT22;58645;43.068;25.610;2023-11-18T09:46:08;6.60;99.90
70986;DHT22;58645;43.068;25.610;2023-11-18T09:48:49;6.50;99.90
70986;DHT22;58645;43.068;25.610;2023-11-18T09:51:37;6.60;99.90
70986;DHT22;58645;43.068;25.610;2023-11-18T09:54:07;6.60;99.90
70986;DHT22;58645;43.068;25.610;2023-11-18T10:01:50;6.50;99.90
70986;DHT22;58645;43.068;25.610;2023-11-18T10:04:21;6.50;99.90
70986;DHT22;58645;43.068;25.610;2023-11-18T10:06:51;6.50;99.90
70986;DHT22;58645;43.068;25.610;2023-11-18T10:09:19;6.50;99.90
70986;DHT22;58645;43.068;25.610;2023-11-18T10:11:54;6.50;99.90
70986;DHT22;58645;43.068;25.610;2023-11-18T10:14:34;6.50;99.90
70986;DHT22;58645;43.068;25.610;2023-11-18T10:17:04;6.40;99.90
70986;DHT22;58645;43.068;25.610;2023-11-18T10:19:52;6.30;99.90
70986;DHT22;58645;43.068;25.610;2023-11-18T10:24:51;6.30;99.90
70986;DHT22;58645;43.068;25.610;2023-11-18T10:27:29;6.30;99.90
70986;DHT22;58645;43.068;25.610;2023-11-18T10:30:02;6.30;99.90
70986;DHT22;58645;43.068;25.610;2023-11-18T10:32:28;6.20;99.90
70986;DHT22;58645;43.068;25.610;2023-11-18T10:34:56;6.20;99.90
70986;DHT22;58645;43.068;25.610;2023-11-18T10:37:23;6.10;99.90
70986;DHT22;58645;43.068;25.610;2023-11-18T10:39:49;6.10;99.90
70986;DHT22;58645;43.068;25.610;2023-11-18T10:42:17;6.00;99.90
70986;DHT22;58645;43.068;25.610;2023-11-18T10:44:56;5.90;99.90
70986;DHT22;58645;43.068;25.610;2023-11-18T10:47:27;5.90;99.90
70986;DHT22;58645;43.068;25.610;2023-11-18T10:49:53;5.90;99.90
70986;DHT22;58645;43.068;25.610;2023-11-18T10:52:24;5.90;99.90
70986;DHT22;58645;43.068;25.610;2023-11-18T10:54:52;5.90;99.90
70986;DHT22;58645;43.068;25.610;2023-11-18T10:57:20;5.90;99.90
70986;DHT22;58645;43.068;25.610;2023-11-18T11:00:03;5.90;99.90
70986;DHT22;58645;43.068;25.610;2023-11-18T11:02:41;5.90;99.90
70986;DHT22;58645;43.068;25.610;2023-11-18T11:05:10;5.90;99.90
70986;DHT22;58645;43.068;25.610;2023-11-18T11:07:43;5.90;99.90
70986;DHT22;58645;43.068;25.610;2023-11-18T11:10:09;5.90;99.90
70986;DHT22;58645;43.068;25.610;2023-11-18T11:12:50;5.90;99.90
70986;DHT22;58645;43.068;25.610;2023-11-18T11:15:30;5.90;99.90
70986;DHT22;58645;43.068;25.610;2023-11-18T11:18:04;5.90;99.90
70986;DHT22;58645;43.068;25.610;2023-11-18T11:20:39;5.90;99.90
70986;DHT22;58645;43.068;25.610;2023-11-18T11:23:21;6.00;99.90
70986;DHT22;58645;43.068;25.610;2023-11-18T11:28:21;6.00;99.90
70986;DHT22;58645;43.068;25.610;2023-11-18T11:30:58;6.00;99.90
70986;DHT22;58645;43.068;25.610;2023-11-18T11:33:40;6.10;99.90
70986;DHT22;58645;43.068;25.610;2023-11-18T11:36:12;6.10;99.90
70986;DHT22;58645;43.068;25.610;2023-11-18T11:38:38;6.20;99.90
70986;DHT22;58645;43.068;25.610;2023-11-18T11:41:05;6.20;99.90
70986;DHT22;58645;43.068;25.610;2023-11-18T11:43:34;6.20;99.90
70986;DHT22;58645;43.068;25.610;2023-11-18T11:46:03;6.20;99.90
70986;DHT22;58645;43.068;25.610;2023-11-18T11:48:37;6.20;99.90
70986;DHT22;58645;43.068;25.610;2023-11-18T11:51:15;6.20;99.90
70986;DHT22;58645;43.068;25.610;2023-11-18T11:54:06;6.20;99.90
70986;DHT22;58645;43.068;25.610;2023-11-18T11:56:44;6.30;99.90
70986;DHT22;58645;43.068;25.610;2023-11-18T11:59:34;6.30;99.90
70986;DHT22;58645;43.068;25.610;2023-11-18T12:02:02;6.30;99.90
70986;DHT22;58645;43.068;25.610;2023-11-18T12:04:34;6.30;99.90
70986;DHT22;58645;43.068;25.610;2023-11-18T12:07:04;6.30;99.90
70986;DHT22;58645;43.068;25.610;2023-11-18T12:09:31;6.30;99.90
70986;DHT22;58645;43.068;25.610;2023-11-18T12:12:04;6.20;99.90
70986;DHT22;58645;43.068;25.610;2023-11-18T12:14:58;6.10;99.90
70986;DHT22;58645;43.068;25.610;2023-11-18T12:20:41;6.10;99.90
70986;DHT22;58645;43.068;25.610;2023-11-18T12:23:23;6.10;99.90
70986;DHT22;58645;43.068;25.610;2023-11-18T12:25:51;5.90;99.90
70986;DHT22;58645;43.068;25.610;2023-11-18T12:28:24;5.90;99.90
70986;DHT22;58645;43.068;25.610;2023-11-18T12:30:53;5.80;99.90
70986;DHT22;58645;43.068;25.610;2023-11-18T12:41:40;5.50;99.90
70986;DHT22;58645;43.068;25.610;2023-11-18T12:49:20;5.20;99.90
70986;DHT22;58645;43.068;25.610;2023-11-18T12:51:50;5.10;99.90
70986;DHT22;58645;43.068;25.610;2023-11-18T12:54:21;5.00;99.90
70986;DHT22;58645;43.068;25.610;2023-11-18T12:56:51;4.90;99.90
70986;DHT22;58645;43.068;25.610;2023-11-18T12:59:19;4.90;99.90
70986;DHT22;58645;43.068;25.610;2023-11-18T13:01:50;4.90;99.90
70986;DHT22;58645;43.068;25.610;2023-11-18T13:04:28;4.80;99.90
70986;DHT22;58645;43.068;25.610;2023-11-18T13:06:54;4.80;99.90
70986;DHT22;58645;43.068;25.610;2023-11-18T13:09:23;4.80;99.90
70986;DHT22;58645;43.068;25.610;2023-11-18T13:11:59;4.70;99.90
70986;DHT22;58645;43.068;25.610;2023-11-18T13:14:31;4.70;99.90
70986;DHT22;58645;43.068;25.610;2023-11-18T13:17:02;4.70;99.90
70986;DHT22;58645;43.068;25.610;2023-11-18T13:19:31;4.60;99.90
70986;DHT22;58645;43.068;25.610;2023-11-18T13:22:04;4.70;99.90
70986;DHT22;58645;43.068;25.610;2023-11-18T13:24:30;4.60;99.90
70986;DHT22;58645;43.068;25.610;2023-11-18T13:26:57;4.60;99.90
70986;DHT22;58645;43.068;25.610;2023-11-18T13:29:23;4.60;99.90
70986;DHT22;58645;43.068;25.610;2023-11-18T13:31:52;4.60;99.90
70986;DHT22;58645;43.068;25.610;2023-11-18T13:34:19;4.60;99.90
70986;DHT22;58645;43.068;25.610;2023-11-18T13:36:49;4.70;99.90
70986;DHT22;58645;43.068;25.610;2023-11-18T13:39:19;4.60;99.90
70986;DHT22;58645;43.068;25.610;2023-11-18T13:41:51;4.10;99.90
70986;DHT22;58645;43.068;25.610;2023-11-18T13:44:35;4.60;99.90
70986;DHT22;58645;43.068;25.610;2023-11-18T13:47:04;4.70;99.90
70986;DHT22;58645;43.068;25.610;2023-11-18T13:49:38;4.60;99.90
70986;DHT22;58645;43.068;25.610;2023-11-18T13:52:06;4.70;99.90
70986;DHT22;58645;43.068;25.610;2023-11-18T13:54:37;4.60;99.90
70986;DHT22;58645;43.068;25.610;2023-11-18T13:57:04;4.60;99.90
70986;DHT22;58645;43.068;25.610;2023-11-18T13:59:31;4.60;99.90
70986;DHT22;58645;43.068;25.610;2023-11-18T14:01:58;4.60;99.90
70986;DHT22;58645;43.068;25.610;2023-11-18T14:04:28;4.60;99.90
70986;DHT22;58645;43.068;25.610;2023-11-18T14:06:58;4.60;99.90
70986;DHT22;58645;43.068;25.610;2023-11-18T14:09:25;4.50;99.90
70986;DHT22;58645;43.068;25.610;2023-11-18T14:11:52;4.50;99.90
70986;DHT22;58645;43.068;25.610;2023-11-18T14:14:21;4.50;99.90
70986;DHT22;58645;43.068;25.610;2023-11-18T14:16:47;4.50;99.90
70986;DHT22;58645;43.068;25.610;2023-11-18T14:19:12;4.50;99.90
70986;DHT22;58645;43.068;25.610;2023-11-18T14:21:39;4.50;99.90
70986;DHT22;58645;43.068;25.610;2023-11-18T14:24:07;4.50;99.90
70986;DHT22;58645;43.068;25.610;2023-11-18T14:26:33;4.50;99.90
70986;DHT22;58645;43.068;25.610;2023-11-18T14:28:59;4.50;99.90
70986;DHT22;58645;43.068;25.610;2023-11-18T14:31:25;4.50;99.90
70986;DHT22;58645;43.068;25.610;2023-11-18T14:33:51;4.50;99.90
70986;DHT22;58645;43.068;25.610;2023-11-18T14:36:18;4.50;99.90
70986;DHT22;58645;43.068;25.610;2023-11-18T14:38:44;4.40;99.90
70986;DHT22;58645;43.068;25.610;2023-11-18T14:41:10;4.50;99.90
70986;DHT22;58645;43.068;25.610;2023-11-18T14:43:36;4.50;99.90
70986;DHT22;58645;43.068;25.610;2023-11-18T14:46:02;4.40;99.90
70986;DHT22;58645;43.068;25.610;2023-11-18T14:48:29;4.50;99.90
70986;DHT22;58645;43.068;25.610;2023-11-18T14:50:55;4.40;99.90
70986;DHT22;58645;43.068;25.610;2023-11-18T14:53:22;4.40;99.90
70986;DHT22;58645;43.068;25.610;2023-11-18T14:55:48;4.40;99.90
70986;DHT22;58645;43.068;25.610;2023-11-18T14:58:14;4.40;99.90
70986;DHT22;58645;43.068;25.610;2023-11-18T15:00:40;4.30;99.90
70986;DHT22;58645;43.068;25.610;2023-11-18T15:03:08;4.30;99.90
70986;DHT22;58645;43.068;25.610;2023-11-18T15:05:34;4.30;99.90
70986;DHT22;58645;43.068;25.610;2023-11-18T15:07:59;4.30;99.90
70986;DHT22;58645;43.068;25.610;2023-11-18T15:10:27;4.30;99.90
70986;DHT22;58645;43.068;25.610;2023-11-18T15:12:55;4.30;99.90
70986;DHT22;58645;43.068;25.610;2023-11-18T15:15:28;4.30;99.90
70986;DHT22;58645;43.068;25.610;2023-11-18T15:18:06;4.30;99.90
70986;DHT22;58645;43.068;25.610;2023-11-18T15:20:38;4.30;99.90
70986;DHT22;58645;43.068;25.610;2023-11-18T15:23:11;4.30;99.90
70986;DHT22;58645;43.068;25.610;2023-11-18T15:25:38;4.30;99.90
70986;DHT22;58645;43.068;25.610;2023-11-18T15:28:05;4.30;99.90
70986;DHT22;58645;43.068;25.610;2023-11-18T15:30:39;4.30;99.90
70986;DHT22;58645;43.068;25.610;2023-11-18T15:33:06;4.30;99.90
70986;DHT22;58645;43.068;25.610;2023-11-18T15:35:38;4.40;99.90
70986;DHT22;58645;43.068;25.610;2023-11-18T15:38:12;4.40;99.90
70986;DHT22;58645;43.068;25.610;2023-11-18T15:40:42;4.40;99.90
70986;DHT22;58645;43.068;25.610;2023-11-18T15:43:08;4.40;99.90
70986;DHT22;58645;43.068;25.610;2023-11-18T15:45:37;4.50;99.90
70986;DHT22;58645;43.068;25.610;2023-11-18T15:48:03;4.50;99.90
70986;DHT22;58645;43.068;25.610;2023-11-18T15:50:36;4.50;99.90
70986;DHT22;58645;43.068;25.610;2023-11-18T15:53:05;4.60;99.90
70986;DHT22;58645;43.068;25.610;2023-11-18T15:55:32;4.60;99.90
70986;DHT22;58645;43.068;25.610;2023-11-18T15:57:57;4.60;99.90
70986;DHT22;58645;43.068;25.610;2023-11-18T16:00:27;4.60;99.90
70986;DHT22;58645;43.068;25.610;2023-11-18T16:02:55;4.70;99.90
70986;DHT22;58645;43.068;25.610;2023-11-18T16:05:24;4.70;99.90
70986;DHT22;58645;43.068;25.610;2023-11-18T16:07:52;4.70;99.90